createdAt,value
2019-04-01T00:01:21.766Z,72.60
2019-04-01T00:03:51.430Z,72.50
2019-04-01T00:06:21.217Z,72.60
2019-04-01T00:08:50.784Z,72.80
2019-04-01T00:11:20.585Z,73.30
2019-04-01T00:13:50.204Z,73.70
2019-04-01T00:16:19.909Z,74.10
2019-04-01T00:19:02.341Z,74.10
2019-04-01T00:21:21.556Z,74.40
2019-04-01T00:23:51.497Z,75.20
2019-04-01T00:26:21.534Z,75.40
2019-04-01T00:28:51.107Z,76.20
2019-04-01T00:31:21.869Z,75.90
2019-04-01T00:33:51.447Z,77.60
2019-04-01T00:36:21.726Z,78.00
2019-04-01T00:38:51.290Z,78.20
2019-04-01T00:41:21.016Z,78.60
2019-04-01T00:43:55.312Z,78.80
2019-04-01T00:46:25.406Z,79.20
2019-04-01T00:48:54.923Z,79.10
2019-04-01T00:51:25.207Z,79.20
2019-04-01T00:53:55.460Z,79.50
2019-04-01T00:56:25.507Z,80.10
2019-04-01T00:58:55.313Z,80.40
2019-04-01T01:01:25.003Z,80.80
2019-04-01T01:03:54.731Z,81.00
2019-04-01T01:06:24.456Z,81.00
2019-04-01T01:08:54.160Z,80.80
2019-04-01T01:11:23.843Z,80.80
2019-04-01T01:13:53.673Z,80.70
2019-04-01T01:16:23.332Z,80.70
2019-04-01T01:18:53.002Z,80.80
2019-04-01T01:21:22.808Z,80.90
2019-04-01T01:23:52.654Z,80.60
2019-04-01T01:26:22.229Z,80.80
2019-04-01T01:28:51.952Z,80.90
2019-04-01T01:31:21.533Z,80.90
2019-04-01T01:33:51.582Z,81.00
2019-04-01T01:36:21.631Z,81.50
2019-04-01T01:38:51.332Z,81.60
2019-04-01T01:41:20.869Z,82.20
2019-04-01T01:43:50.815Z,82.90
2019-04-01T01:46:20.383Z,83.20
2019-04-01T01:48:50.098Z,83.60
2019-04-01T01:51:20.040Z,83.80
2019-04-01T01:53:50.085Z,83.80
2019-04-01T01:56:19.685Z,83.90
2019-04-01T01:58:49.417Z,83.90
2019-04-01T02:01:19.516Z,84.00
2019-04-01T02:24:32.055Z,86.10
2019-04-01T02:27:01.977Z,86.30
2019-04-01T02:29:31.676Z,86.30
2019-04-01T02:32:01.477Z,87.10
2019-04-01T02:34:31.060Z,87.60
2019-04-01T02:37:01.081Z,88.10
2019-04-01T02:39:31.162Z,89.00
2019-04-01T02:42:01.181Z,89.40
2019-04-01T02:44:31.020Z,89.30
2019-04-01T02:47:00.769Z,89.40
2019-04-01T02:49:30.433Z,89.80
2019-04-01T02:52:01.045Z,90.30
2019-04-01T02:54:30.681Z,90.40
2019-04-01T02:57:00.373Z,91.00
2019-04-01T02:59:30.145Z,91.40
2019-04-01T03:02:00.002Z,91.70
2019-04-01T03:04:29.751Z,91.60
2019-04-01T03:06:59.670Z,91.30
2019-04-01T03:09:29.355Z,91.30
2019-04-01T03:11:59.337Z,91.30
2019-04-01T03:14:28.978Z,91.20
2019-04-01T03:16:58.589Z,91.20
2019-04-01T03:19:28.796Z,91.20
2019-04-01T03:21:58.412Z,91.20
2019-04-01T03:24:28.177Z,91.20
2019-04-01T03:26:57.724Z,91.40
2019-04-01T03:29:27.483Z,91.50
2019-04-01T03:31:57.126Z,91.50
2019-04-01T03:34:26.766Z,91.60
2019-04-01T03:36:56.461Z,91.50
2019-04-01T03:39:26.577Z,91.60
2019-04-01T03:41:56.221Z,91.90
2019-04-01T03:44:26.154Z,92.20
2019-04-01T03:46:55.723Z,92.20
2019-04-01T03:49:25.472Z,92.30
2019-04-01T03:51:55.158Z,92.50
2019-04-01T03:54:24.883Z,92.50
2019-04-01T03:56:54.768Z,92.50
2019-04-01T03:59:24.614Z,92.40
2019-04-01T04:01:54.276Z,92.50
2019-04-01T04:04:25.025Z,92.70
2019-04-01T04:06:54.674Z,92.70
2019-04-01T04:09:24.826Z,92.80
2019-04-01T04:11:54.413Z,92.80
2019-04-01T04:14:24.013Z,92.60
2019-04-01T04:16:53.807Z,92.70
2019-04-01T04:19:23.496Z,93.00
2019-04-01T04:21:53.196Z,93.00
2019-04-01T04:24:23.350Z,93.20
2019-04-01T04:26:53.098Z,93.30
2019-04-01T04:29:22.736Z,93.30
2019-04-01T04:31:52.523Z,93.20
2019-04-01T04:34:22.436Z,93.50
2019-04-01T04:36:52.181Z,93.30
2019-04-01T04:39:21.901Z,93.30
2019-04-01T04:41:51.588Z,93.40
2019-04-01T04:44:21.415Z,93.40
2019-04-01T04:46:51.107Z,93.40
2019-04-01T04:49:21.203Z,93.70
2019-04-01T04:51:50.894Z,93.80
2019-04-01T04:54:20.888Z,93.90
2019-04-01T04:56:50.641Z,94.10
2019-04-01T04:59:20.427Z,94.30
2019-04-01T05:01:50.208Z,94.40
2019-04-01T05:04:19.906Z,94.50
2019-04-01T05:06:50.587Z,94.60
2019-04-01T05:09:20.687Z,94.60
2019-04-01T05:11:50.263Z,94.70
2019-04-01T05:14:20.016Z,94.70
2019-04-01T05:16:50.156Z,94.70
2019-04-01T05:19:20.981Z,95.20
2019-04-01T05:21:51.635Z,94.70
2019-04-01T05:24:22.030Z,95.10
2019-04-01T05:26:53.148Z,95.00
2019-04-01T05:29:24.712Z,94.80
2019-04-01T05:31:56.557Z,94.60
2019-04-01T05:34:28.137Z,94.60
2019-04-01T05:36:57.935Z,94.40
2019-04-01T05:39:27.804Z,94.50
2019-04-01T05:41:57.866Z,94.10
2019-04-01T05:44:28.717Z,94.00
2019-04-01T05:46:58.323Z,93.80
2019-04-01T05:49:28.263Z,93.90
2019-04-01T05:51:57.876Z,93.90
2019-04-01T05:54:27.900Z,93.40
2019-04-01T05:56:57.561Z,93.20
2019-04-01T05:59:27.847Z,93.00
2019-04-01T06:01:57.465Z,92.60
2019-04-01T06:04:27.317Z,92.40
2019-04-01T06:06:57.156Z,92.20
2019-04-01T06:09:27.039Z,91.50
2019-04-01T06:11:56.700Z,90.80
2019-04-01T06:14:27.042Z,90.60
2019-04-01T06:16:57.127Z,90.60
2019-04-01T06:19:26.915Z,87.70
2019-04-01T06:21:57.018Z,87.50
2019-04-01T06:24:26.929Z,86.50
2019-04-01T06:26:57.140Z,86.50
2019-04-01T06:29:26.852Z,86.20
2019-04-01T06:31:56.841Z,84.80
2019-04-01T06:34:26.526Z,84.30
2019-04-01T06:36:56.371Z,85.20
2019-04-01T06:39:27.176Z,85.90
2019-04-01T06:41:57.092Z,86.60
2019-04-01T06:44:26.778Z,85.80
2019-04-01T06:46:57.292Z,85.60
2019-04-01T06:49:27.096Z,85.60
2019-04-01T06:51:57.334Z,86.00
2019-04-01T06:54:27.156Z,84.90
2019-04-01T06:56:57.070Z,84.50
2019-04-01T06:59:26.982Z,84.40
2019-04-01T07:01:56.699Z,84.00
2019-04-01T07:04:26.531Z,83.80
2019-04-01T07:06:56.471Z,82.70
2019-04-01T07:09:26.505Z,82.00
2019-04-01T07:11:56.351Z,81.70
2019-04-01T07:14:26.351Z,80.20
2019-04-01T07:16:56.268Z,78.60
2019-04-01T07:19:26.582Z,76.50
2019-04-01T07:21:56.273Z,76.00
2019-04-01T07:24:26.158Z,75.50
2019-04-01T07:26:56.333Z,75.20
2019-04-01T07:29:26.235Z,75.40
2019-04-01T07:31:56.100Z,75.30
2019-04-01T07:34:26.574Z,76.20
2019-04-01T07:36:56.312Z,75.90
2019-04-01T07:39:26.140Z,75.80
2019-04-01T07:41:55.967Z,76.20
2019-04-01T07:44:27.597Z,76.70
2019-04-01T07:46:58.513Z,77.70
2019-04-01T07:49:28.737Z,77.40
2019-04-01T07:51:58.434Z,77.10
2019-04-01T07:54:28.379Z,78.20
2019-04-01T07:56:58.250Z,77.30
2019-04-01T07:59:28.220Z,75.80
2019-04-01T08:01:58.644Z,74.30
2019-04-01T08:04:28.752Z,72.80
2019-04-01T08:06:58.558Z,72.40
2019-04-01T08:09:28.941Z,71.00
2019-04-01T08:11:58.872Z,71.20
2019-04-01T08:14:28.997Z,70.40
2019-04-01T08:16:59.051Z,69.70
2019-04-01T08:19:28.970Z,71.40
2019-04-01T08:22:00.209Z,69.80
2019-04-01T08:24:29.886Z,69.30
2019-04-01T08:26:59.935Z,69.30
2019-04-01T08:29:30.781Z,68.60
2019-04-01T08:32:01.355Z,67.60
2019-04-01T08:34:31.635Z,70.90
2019-04-01T08:37:07.360Z,69.60
2019-04-01T08:39:37.262Z,67.60
2019-04-01T08:42:07.112Z,66.20
2019-04-01T08:44:37.476Z,65.10
2019-04-01T08:47:07.244Z,64.40
2019-04-01T08:49:37.395Z,65.90
2019-04-01T08:52:07.375Z,64.90
2019-04-01T08:54:37.177Z,65.10
2019-04-01T08:57:07.000Z,64.10
2019-04-01T08:59:37.742Z,65.70
2019-04-01T09:02:17.720Z,64.40
2019-04-01T09:04:39.411Z,61.20
2019-04-01T09:07:08.982Z,60.10
2019-04-01T09:09:39.539Z,60.60
2019-04-01T09:12:10.225Z,59.90
2019-04-01T09:14:41.015Z,60.30
2019-04-01T09:17:11.022Z,60.70
2019-04-01T09:19:40.827Z,61.60
2019-04-01T09:22:10.560Z,61.00
2019-04-01T09:24:40.517Z,60.10
2019-04-01T09:27:10.178Z,58.00
2019-04-01T09:29:39.983Z,56.70
2019-04-01T09:32:09.951Z,56.80
2019-04-01T09:34:39.850Z,55.60
2019-04-01T09:37:09.550Z,54.20
2019-04-01T09:39:39.340Z,54.90
2019-04-01T09:42:09.979Z,55.90
2019-04-01T09:44:40.138Z,56.50
2019-04-01T09:47:09.806Z,56.90
2019-04-01T09:49:40.734Z,57.70
2019-04-01T09:52:10.491Z,56.80
2019-04-01T09:54:40.281Z,54.50
2019-04-01T09:57:17.477Z,53.70
2019-04-01T09:59:41.616Z,53.70
2019-04-01T10:02:11.703Z,52.70
2019-04-01T10:04:41.453Z,52.20
2019-04-01T10:07:11.226Z,54.50
2019-04-01T10:09:41.277Z,55.00
2019-04-01T10:12:11.058Z,54.50
2019-04-01T10:14:40.890Z,54.00
2019-04-01T10:17:11.170Z,54.00
2019-04-01T10:19:40.820Z,52.90
2019-04-01T10:22:12.784Z,52.80
2019-04-01T10:24:42.755Z,51.60
2019-04-01T10:27:12.559Z,53.10
2019-04-01T10:29:42.246Z,51.90
2019-04-01T10:32:12.151Z,52.00
2019-04-01T10:34:42.164Z,51.20
2019-04-01T10:37:12.837Z,51.40
2019-04-01T10:39:42.614Z,51.70
2019-04-01T10:42:12.668Z,50.70
2019-04-01T10:44:43.243Z,48.50
2019-04-01T10:47:13.717Z,48.40
2019-04-01T10:49:43.848Z,49.30
2019-04-01T10:52:13.928Z,49.00
2019-04-01T10:54:43.882Z,49.10
2019-04-01T10:57:14.013Z,48.90
2019-04-01T10:59:43.943Z,49.60
2019-04-01T11:02:16.628Z,49.10
2019-04-01T11:04:46.110Z,49.40
2019-04-01T11:07:16.029Z,49.40
2019-04-01T11:09:47.747Z,49.30
2019-04-01T11:12:18.502Z,49.10
2019-04-01T11:14:48.312Z,49.20
2019-04-01T11:17:18.174Z,48.40
2019-04-01T11:19:48.608Z,46.70
2019-04-01T11:22:18.959Z,46.70
2019-04-01T11:24:48.874Z,48.60
2019-04-01T11:27:18.778Z,50.60
2019-04-01T11:29:49.046Z,52.70
2019-04-01T11:32:19.235Z,54.80
2019-04-01T11:34:49.561Z,57.00
2019-04-01T11:37:19.822Z,58.10
2019-04-01T11:39:49.698Z,58.00
2019-04-01T11:42:19.640Z,58.40
2019-04-01T11:44:50.281Z,58.60
2019-04-01T11:47:22.058Z,58.30
2019-04-01T11:49:52.683Z,59.00
2019-04-01T11:52:23.184Z,59.70
2019-04-01T11:54:53.005Z,60.50
2019-04-01T11:57:23.336Z,60.70
2019-04-01T11:59:53.755Z,60.40
2019-04-01T12:02:24.277Z,59.70
2019-04-01T12:04:54.190Z,59.80
2019-04-01T12:07:24.526Z,59.50
2019-04-01T12:09:55.314Z,59.80
2019-04-01T12:12:26.044Z,60.10
2019-04-01T12:14:56.413Z,59.40
2019-04-01T12:17:26.623Z,59.30
2019-04-01T12:19:56.313Z,59.40
2019-04-01T12:22:26.434Z,59.60
2019-04-01T12:24:56.276Z,60.10
2019-04-01T12:27:26.254Z,62.00
2019-04-01T12:29:56.576Z,62.00
2019-04-01T12:32:26.431Z,61.00
2019-04-01T12:34:56.267Z,61.20
2019-04-01T12:37:29.960Z,61.00
2019-04-01T12:39:58.942Z,61.60
2019-04-01T12:42:28.959Z,60.70
2019-04-01T12:44:59.704Z,60.40
2019-04-01T12:47:30.114Z,61.70
2019-04-01T12:50:01.318Z,61.60
2019-04-01T12:52:32.426Z,62.20
2019-04-01T12:55:02.721Z,61.80
2019-04-01T12:57:34.279Z,61.10
2019-04-01T13:00:05.156Z,60.20
2019-04-01T13:02:35.672Z,60.30
2019-04-01T13:05:06.396Z,60.40
2019-04-01T13:07:36.364Z,60.90
2019-04-01T13:10:07.173Z,60.60
2019-04-01T13:12:37.153Z,60.80
2019-04-01T13:15:07.374Z,60.80
2019-04-01T13:17:37.079Z,61.10
2019-04-01T13:20:07.158Z,61.20
2019-04-01T13:22:37.953Z,62.20
2019-04-01T13:25:08.258Z,62.70
2019-04-01T13:27:38.339Z,63.50
2019-04-01T13:30:09.823Z,62.90
2019-04-01T13:32:40.076Z,63.90
2019-04-01T13:35:10.678Z,64.10
2019-04-01T13:37:40.899Z,62.80
2019-04-01T13:40:11.536Z,61.30
2019-04-01T13:42:43.325Z,60.70
2019-04-01T13:45:14.380Z,61.10
2019-04-01T13:47:44.582Z,61.80
2019-04-01T13:50:16.462Z,60.50
2019-04-01T13:52:47.300Z,60.30
2019-04-01T13:55:17.692Z,59.40
2019-04-01T13:57:48.008Z,60.00
2019-04-01T14:00:20.224Z,60.30
2019-04-01T14:02:50.453Z,60.20
2019-04-01T14:05:20.281Z,60.60
2019-04-01T14:07:50.836Z,61.00
2019-04-01T14:10:20.941Z,60.60
2019-04-01T14:12:50.897Z,60.50
2019-04-01T14:15:20.957Z,60.60
2019-04-01T14:17:50.906Z,59.70
2019-04-01T14:20:20.820Z,59.80
2019-04-01T14:22:53.477Z,60.20
2019-04-01T14:25:22.373Z,60.40
2019-04-01T14:27:52.207Z,60.90
2019-04-01T14:30:22.456Z,60.80
2019-04-01T14:32:52.605Z,60.80
2019-04-01T14:35:23.867Z,59.60
2019-04-01T14:37:57.888Z,59.60
2019-04-01T14:40:25.665Z,59.40
2019-04-01T14:42:55.512Z,59.40
2019-04-01T14:45:25.808Z,59.00
2019-04-01T14:47:57.483Z,59.40
2019-04-01T14:50:27.240Z,59.40
2019-04-01T14:52:57.125Z,59.90
2019-04-01T14:55:27.480Z,59.20
2019-04-01T14:58:00.234Z,59.20
2019-04-01T15:00:28.827Z,58.90
2019-04-01T15:02:59.499Z,59.10
2019-04-01T15:05:32.901Z,59.20
2019-04-01T15:08:03.589Z,59.40
2019-04-01T15:10:33.622Z,59.80
2019-04-01T15:13:06.075Z,59.50
2019-04-01T15:15:36.160Z,59.70
2019-04-01T15:18:09.572Z,59.70
2019-04-01T15:20:37.966Z,59.60
2019-04-01T15:23:07.931Z,59.80
2019-04-01T15:25:38.052Z,59.70
2019-04-01T15:28:08.086Z,59.40
2019-04-01T15:30:38.090Z,59.60
2019-04-01T15:33:07.931Z,59.20
2019-04-01T15:35:37.994Z,59.30
2019-04-01T15:38:08.359Z,59.50
2019-04-01T15:40:38.739Z,58.70
2019-04-01T15:43:08.743Z,59.00
2019-04-01T15:45:38.712Z,59.00
2019-04-01T15:48:08.460Z,58.80
2019-04-01T15:50:38.693Z,58.60
2019-04-01T15:53:08.556Z,58.40
2019-04-01T15:55:38.902Z,58.30
2019-04-01T15:58:08.589Z,58.80
2019-04-01T16:00:40.068Z,59.00
2019-04-01T16:03:09.960Z,58.90
2019-04-01T16:05:40.189Z,58.40
2019-04-01T16:08:10.381Z,58.50
2019-04-01T16:10:40.305Z,58.70
2019-04-01T16:13:10.200Z,59.00
2019-04-01T16:15:39.910Z,58.70
2019-04-01T16:18:09.746Z,58.20
2019-04-01T16:20:39.775Z,58.20
2019-04-01T16:23:10.352Z,58.60
2019-04-01T16:25:40.277Z,59.00
2019-04-01T16:28:11.318Z,59.00
2019-04-01T16:30:41.796Z,58.90
2019-04-01T16:33:12.465Z,58.90
2019-04-01T16:35:42.812Z,59.20
2019-04-01T16:38:12.645Z,59.10
2019-04-01T16:40:42.800Z,59.20
2019-04-01T16:43:12.893Z,58.70
2019-04-01T16:45:43.090Z,58.80
2019-04-01T16:48:13.247Z,59.00
2019-04-01T16:50:43.364Z,60.20
2019-04-01T16:53:13.214Z,59.20
2019-04-01T16:55:43.397Z,59.50
2019-04-01T16:58:13.423Z,59.60
2019-04-01T17:00:43.868Z,59.50
2019-04-01T17:03:14.079Z,59.90
2019-04-01T17:05:44.385Z,59.80
2019-04-01T17:08:14.414Z,59.60
2019-04-01T17:10:45.981Z,59.80
2019-04-01T17:13:16.878Z,59.90
2019-04-01T17:15:46.940Z,60.00
2019-04-01T17:18:17.121Z,59.90
2019-04-01T17:20:46.821Z,60.00
2019-04-01T17:23:17.070Z,60.10
2019-04-01T17:25:47.114Z,60.40
2019-04-01T17:28:17.303Z,60.30
2019-04-01T17:30:47.311Z,60.60
2019-04-01T17:33:17.553Z,60.20
2019-04-01T17:35:47.407Z,60.70
2019-04-01T17:38:17.469Z,61.00
2019-04-01T17:40:47.492Z,60.60
2019-04-01T17:43:17.609Z,60.70
2019-04-01T17:45:47.578Z,60.80
2019-04-01T17:48:19.885Z,61.10
2019-04-01T17:50:49.978Z,61.30
2019-04-01T17:53:21.279Z,61.20
2019-04-01T17:55:51.054Z,61.40
2019-04-01T17:58:21.002Z,61.40
2019-04-01T18:00:54.726Z,61.70
2019-04-01T18:03:24.842Z,61.80
2019-04-01T18:05:54.746Z,62.00
2019-04-01T18:08:24.843Z,62.10
2019-04-01T18:10:54.686Z,61.90
2019-04-01T18:13:24.825Z,62.00
2019-04-01T18:15:57.346Z,62.20
2019-04-01T18:18:27.486Z,62.20
2019-04-01T18:20:57.825Z,62.50
2019-04-01T18:23:27.777Z,62.70
2019-04-01T18:25:58.411Z,63.00
2019-04-01T18:28:28.236Z,63.00
2019-04-01T18:30:58.158Z,63.50
2019-04-01T18:33:30.078Z,63.20
2019-04-01T18:35:59.778Z,62.90
2019-04-01T18:38:29.772Z,62.90
2019-04-01T18:40:59.944Z,63.20
2019-04-01T18:43:29.663Z,62.80
2019-04-01T18:46:00.323Z,63.00
2019-04-01T18:48:30.544Z,62.90
2019-04-01T18:51:00.325Z,63.30
2019-04-01T18:53:30.578Z,63.10
2019-04-01T18:56:00.844Z,63.20
2019-04-01T18:58:31.015Z,63.00
2019-04-01T19:01:04.213Z,62.90
2019-04-01T19:03:33.986Z,62.90
2019-04-01T19:06:03.721Z,62.60
2019-04-01T19:08:33.606Z,62.60
2019-04-01T19:11:03.475Z,62.90
2019-04-01T19:13:33.955Z,62.50
2019-04-01T19:16:05.922Z,62.70
2019-04-01T19:18:39.551Z,62.60
2019-04-01T19:21:08.926Z,62.50
2019-04-01T19:23:41.423Z,62.40
2019-04-01T19:26:11.193Z,62.00
2019-04-01T19:28:41.110Z,61.80
2019-04-01T19:31:12.004Z,61.80
2019-04-01T19:33:42.580Z,61.90
2019-04-01T19:36:12.338Z,61.30
2019-04-01T19:38:42.445Z,61.50
2019-04-01T19:41:12.445Z,61.20
2019-04-01T19:43:42.586Z,61.30
2019-04-01T19:46:12.922Z,61.40
2019-04-01T19:48:42.786Z,61.70
2019-04-01T19:51:12.704Z,61.70
2019-04-01T19:53:42.495Z,61.40
2019-04-01T19:56:12.656Z,61.70
2019-04-01T19:58:42.477Z,61.80
2019-04-01T20:01:12.270Z,61.90
2019-04-01T20:03:42.198Z,62.00
2019-04-01T20:06:12.094Z,62.30
2019-04-01T20:08:42.061Z,62.10
2019-04-01T20:11:11.895Z,62.10
2019-04-01T20:13:42.869Z,62.20
2019-04-01T20:16:13.059Z,62.10
2019-04-01T20:18:43.004Z,62.20
2019-04-01T20:21:12.969Z,62.30
2019-04-01T20:23:42.930Z,62.20
2019-04-01T20:26:12.735Z,62.50
2019-04-01T20:28:42.594Z,62.20
2019-04-01T20:31:12.544Z,62.40
2019-04-01T20:33:42.852Z,62.80
2019-04-01T20:36:13.326Z,62.90
2019-04-01T20:38:43.263Z,62.80
2019-04-01T20:41:13.431Z,63.00
2019-04-01T20:43:44.218Z,63.20
2019-04-01T20:46:14.526Z,63.40
2019-04-01T20:48:44.519Z,64.40
2019-04-01T20:51:14.368Z,63.80
2019-04-01T20:53:44.576Z,64.20
2019-04-01T20:56:14.387Z,64.20
2019-04-01T20:58:44.259Z,64.30
2019-04-01T21:01:14.022Z,64.40
2019-04-01T21:03:44.540Z,64.20
2019-04-01T21:06:14.655Z,64.60
2019-04-01T21:08:44.810Z,64.60
2019-04-01T21:11:14.480Z,64.80
2019-04-01T21:13:44.648Z,64.70
2019-04-01T21:16:14.423Z,64.80
2019-04-01T21:18:45.321Z,65.10
2019-04-01T21:21:17.096Z,65.10
2019-04-01T21:23:46.965Z,65.60
2019-04-01T21:26:16.698Z,65.90
2019-04-01T21:28:46.544Z,66.20
2019-04-01T21:31:17.303Z,66.10
2019-04-01T21:33:47.508Z,66.10
2019-04-01T21:36:17.215Z,66.20
2019-04-01T21:38:46.981Z,66.50
2019-04-01T21:41:20.442Z,66.50
2019-04-01T21:43:49.793Z,66.90
2019-04-01T21:46:19.842Z,66.80
2019-04-01T21:48:49.637Z,67.20
2019-04-01T21:51:19.424Z,67.00
2019-04-01T21:53:49.288Z,66.90
2019-04-01T21:56:19.987Z,67.40
2019-04-01T21:58:50.009Z,67.60
2019-04-01T22:01:19.617Z,68.00
2019-04-01T22:03:50.028Z,67.60
2019-04-01T22:06:19.978Z,67.90
2019-04-01T22:08:49.847Z,67.80
2019-04-01T22:11:20.572Z,68.00
2019-04-01T22:13:50.545Z,68.20
2019-04-01T22:16:20.425Z,68.30
2019-04-01T22:18:50.608Z,68.30
2019-04-01T22:21:20.469Z,68.50
2019-04-01T22:23:50.612Z,68.60
2019-04-01T22:26:20.400Z,68.80
2019-04-01T22:28:51.076Z,68.50
2019-04-01T22:31:21.010Z,68.90
2019-04-01T22:33:50.921Z,69.20
2019-04-01T22:36:30.467Z,69.00
2019-04-01T22:38:52.218Z,69.10
2019-04-01T22:41:21.921Z,69.40
2019-04-01T22:43:51.767Z,69.50
2019-04-01T22:46:21.528Z,69.50
2019-04-01T22:48:51.359Z,69.60
2019-04-01T22:51:21.045Z,69.80
2019-04-01T22:53:50.907Z,69.80
2019-04-01T22:56:20.896Z,69.90
2019-04-01T22:58:51.220Z,69.90
2019-04-01T23:01:21.207Z,70.30
2019-04-01T23:03:51.229Z,70.60
2019-04-01T23:06:20.936Z,70.70
2019-04-01T23:08:50.810Z,71.40
2019-04-01T23:11:20.495Z,72.60
2019-04-01T23:13:50.238Z,71.60
2019-04-01T23:16:20.156Z,71.90
2019-04-01T23:18:49.922Z,71.50
2019-04-01T23:21:19.733Z,72.90
2019-04-01T23:23:49.637Z,73.00
2019-04-01T23:26:19.445Z,73.50
2019-04-01T23:28:49.322Z,73.60
2019-04-01T23:31:19.225Z,73.90
2019-04-01T23:33:48.878Z,73.70
2019-04-01T23:36:19.041Z,73.40
2019-04-01T23:38:48.716Z,73.50
2019-04-01T23:41:18.628Z,73.20
2019-04-01T23:43:48.315Z,73.40
2019-04-01T23:46:19.082Z,73.60
2019-04-01T23:48:49.400Z,73.30
2019-04-01T23:51:19.107Z,73.50
2019-04-01T23:53:48.780Z,73.40
2019-04-01T23:56:18.559Z,74.00
2019-04-01T23:58:48.263Z,74.00
